Impacts METAR Board
IDs:

KMOB - Mobile Rgnl, AL, US

Updated at: 1100 UTC 30 Oct 2020
Potential Impact None Slight Moderate High
Time 29/23Z 30/00Z 30/01Z 30/02Z 30/03Z 30/04Z 30/05Z 30/06Z 30/07Z 30/08Z 30/09Z 30/10Z 30/11Z
Temp62 58 57 56 54 52 51 49 49 49 50 50 50
Dewpt43 46 45 45 44 42 43 44 44 44 45 44 44
Altim29.90 29.94 29.97 30.01 30.04 30.05 30.05 30.07 30.07 30.08 30.08 30.09 30.12
VIS10 10 10 10 10 10 10 10 10 10 10 10 7
CIG-- -- -- -- -- -- -- -- -- -- 17 17 18
CoverFEWFEWCLRCLRCLRCLRCLRCLRCLRFEWOVCOVCOVC
FltCatVFRVFRVFRVFRVFRVFRVFRVFRVFRVFRMVFRMVFRMVFR
WX--------------------------
WDir290300300320310320330320340340340330350
WSpd4 5 5 5 10 10 7 4 6 11 13 16 12
WGst-- -- -- -- 20 -- -- -- -- -- -- 21 23
R14/32
XWnd -2 -2 -2 -0 -2 -1 1 -0 2 3 4 2 5
XGst -- -- -- -- -5 -- -- -- -- -- -- 2 10
HWnd -3 -5 -5 -5 -10 -10 -7 -4 -6 -11 -12 -16 -11
HGst -- -- -- -- -19 -- -- -- -- -- -- -21 -21
R18/36
XWnd -4 -4 -4 -3 -8 -6 -4 -3 -2 -4 -4 -8 -2
XGst -- -- -- -- -15 -- -- -- -- -- -- -11 -4
HWnd -1 -3 -3 -4 -6 -8 -6 -3 -6 -10 -12 -14 -12
HGst -- -- -- -- -13 -- -- -- -- -- -- -18 -23
Raw hourly METARs
KMOB 292256Z 29004KT 10SM FEW100 17/06 A2990 RMK AO2 SLP121 T01670061
KMOB 292356Z 30005KT 10SM FEW100 14/08 A2994 RMK AO2 SLP135 T01440078 10200 20144 53030
KMOB 300056Z 30005KT 10SM CLR 14/07 A2997 RMK AO2 SLP147 T01390072
KMOB 300156Z 32005KT 10SM CLR 13/07 A3001 RMK AO2 SLP159 T01330072
KMOB 300256Z 31010G20KT 10SM CLR 12/07 A3004 RMK AO2 SLP169 T01220067 51033
KMOB 300356Z 32010KT 10SM CLR 11/06 A3005 RMK AO2 SLP174 T01110056
KMOB 300456Z AUTO 33007KT 10SM CLR 11/06 A3005 RMK AO2 SLP175 T01060061
KMOB 300556Z AUTO 32004KT 10SM CLR 09/07 A3007 RMK AO2 SLP180 T00940067 10144 20094 402390094 52010
KMOB 300656Z AUTO 34006KT 10SM CLR 09/07 A3007 RMK AO2 SLP182 T00940067
KMOB 300756Z AUTO 34011KT 10SM FEW018 09/07 A3008 RMK AO2 SLP184 T00940067
KMOB 300856Z AUTO 34013KT 10SM OVC017 10/07 A3008 RMK AO2 SLP185 T01000072 51005
KMOB 300956Z AUTO 33016G21KT 10SM OVC017 10/07 A3009 RMK AO2 SLP189 T01000067
KMOB 301056Z 35012G23KT 7SM OVC018 10/07 A3012 RMK AO2 SLP198 T01000067



Page loaded:  11:19 UTC  |   04:19 AM Pacific  |   05:19 AM Mountain  |   06:19 AM Central  |   07:19 AM Eastern

 

ADVISORIES

FORECASTS

FORECASTS

OBSERVATIONS

USER TOOLS

ABOUT US